sensor_id;sensor_type;location;lat;lon;timestamp;pressure;altitude;pressure_sealevel;temperature;humidity
43450;BME280;29041;42.266;23.110;2023-11-18T00:02:13;95121.63;;;6.45;100.00
43450;BME280;29041;42.266;23.110;2023-11-18T00:05:00;95117.53;;;6.39;100.00
43450;BME280;29041;42.266;23.110;2023-11-18T00:07:47;95133.91;;;6.15;100.00
43450;BME280;29041;42.266;23.110;2023-11-18T00:10:36;95128.16;;;6.22;100.00
43450;BME280;29041;42.266;23.110;2023-11-18T00:13:24;95132.03;;;6.07;100.00
43450;BME280;29041;42.266;23.110;2023-11-18T00:16:12;95140.06;;;6.24;100.00
43450;BME280;29041;42.266;23.110;2023-11-18T00:18:59;95130.00;;;6.12;100.00
43450;BME280;29041;42.266;23.110;2023-11-18T00:21:47;95119.66;;;5.79;100.00
43450;BME280;29041;42.266;23.110;2023-11-18T00:24:34;95128.09;;;5.81;100.00
43450;BME280;29041;42.266;23.110;2023-11-18T00:27:23;95120.72;;;5.69;100.00
43450;BME280;29041;42.266;23.110;2023-11-18T00:30:11;95144.75;;;5.55;100.00
43450;BME280;29041;42.266;23.110;2023-11-18T00:32:58;95130.00;;;5.49;100.00
43450;BME280;29041;42.266;23.110;2023-11-18T00:35:45;95146.44;;;5.51;100.00
43450;BME280;29041;42.266;23.110;2023-11-18T00:38:32;95144.53;;;5.43;100.00
43450;BME280;29041;42.266;23.110;2023-11-18T00:41:19;95147.53;;;5.73;100.00
43450;BME280;29041;42.266;23.110;2023-11-18T00:44:08;95122.75;;;5.18;100.00
43450;BME280;29041;42.266;23.110;2023-11-18T00:46:55;95151.97;;;5.32;100.00
43450;BME280;29041;42.266;23.110;2023-11-18T00:49:43;95166.28;;;5.22;100.00
43450;BME280;29041;42.266;23.110;2023-11-18T00:52:30;95166.47;;;5.26;100.00
43450;BME280;29041;42.266;23.110;2023-11-18T00:55:17;95174.97;;;5.14;100.00
43450;BME280;29041;42.266;23.110;2023-11-18T00:58:05;95178.88;;;5.31;100.00
43450;BME280;29041;42.266;23.110;2023-11-18T01:00:54;95178.75;;;5.13;100.00
43450;BME280;29041;42.266;23.110;2023-11-18T01:03:41;95183.34;;;5.21;100.00
43450;BME280;29041;42.266;23.110;2023-11-18T01:06:28;95141.16;;;4.92;100.00
43450;BME280;29041;42.266;23.110;2023-11-18T01:09:17;95198.22;;;5.22;100.00
43450;BME280;29041;42.266;23.110;2023-11-18T01:12:06;95192.72;;;5.19;100.00
43450;BME280;29041;42.266;23.110;2023-11-18T01:14:55;95196.09;;;5.11;100.00
43450;BME280;29041;42.266;23.110;2023-11-18T01:17:43;95202.16;;;5.25;100.00
43450;BME280;29041;42.266;23.110;2023-11-18T01:20:31;95200.13;;;5.67;100.00
43450;BME280;29041;42.266;23.110;2023-11-18T01:23:19;95201.75;;;5.32;100.00
43450;BME280;29041;42.266;23.110;2023-11-18T01:26:06;95187.66;;;5.31;100.00
43450;BME280;29041;42.266;23.110;2023-11-18T01:28:53;95179.00;;;5.26;100.00
43450;BME280;29041;42.266;23.110;2023-11-18T01:31:41;95181.16;;;5.69;100.00
43450;BME280;29041;42.266;23.110;2023-11-18T01:34:29;95186.13;;;5.84;100.00
43450;BME280;29041;42.266;23.110;2023-11-18T01:37:16;95178.09;;;5.76;100.00
43450;BME280;29041;42.266;23.110;2023-11-18T01:40:05;95166.09;;;5.42;100.00
43450;BME280;29041;42.266;23.110;2023-11-18T01:42:53;95166.88;;;5.87;100.00
43450;BME280;29041;42.266;23.110;2023-11-18T01:45:40;95156.91;;;5.48;100.00
43450;BME280;29041;42.266;23.110;2023-11-18T01:48:27;95155.63;;;5.68;100.00
43450;BME280;29041;42.266;23.110;2023-11-18T01:51:17;95166.78;;;5.24;100.00
43450;BME280;29041;42.266;23.110;2023-11-18T01:54:07;95169.94;;;5.27;100.00
43450;BME280;29041;42.266;23.110;2023-11-18T01:57:00;95163.97;;;5.75;100.00
43450;BME280;29041;42.266;23.110;2023-11-18T01:59:51;95163.16;;;5.97;100.00
43450;BME280;29041;42.266;23.110;2023-11-18T02:02:38;95174.94;;;6.05;100.00
43450;BME280;29041;42.266;23.110;2023-11-18T02:05:26;95189.97;;;5.69;100.00
43450;BME280;29041;42.266;23.110;2023-11-18T02:08:14;95194.84;;;5.31;100.00
43450;BME280;29041;42.266;23.110;2023-11-18T02:11:10;95183.59;;;5.34;100.00
43450;BME280;29041;42.266;23.110;2023-11-18T02:14:00;95175.84;;;5.46;100.00
43450;BME280;29041;42.266;23.110;2023-11-18T02:16:52;95169.22;;;5.35;100.00
43450;BME280;29041;42.266;23.110;2023-11-18T02:19:40;95181.94;;;5.01;100.00
43450;BME280;29041;42.266;23.110;2023-11-18T02:22:27;95182.34;;;4.95;100.00
43450;BME280;29041;42.266;23.110;2023-11-18T02:25:17;95186.00;;;5.21;100.00
43450;BME280;29041;42.266;23.110;2023-11-18T02:28:06;95168.19;;;5.45;100.00
43450;BME280;29041;42.266;23.110;2023-11-18T02:31:00;95181.78;;;5.20;100.00
43450;BME280;29041;42.266;23.110;2023-11-18T02:33:55;95178.59;;;4.96;100.00
43450;BME280;29041;42.266;23.110;2023-11-18T02:36:48;95171.50;;;4.91;100.00
43450;BME280;29041;42.266;23.110;2023-11-18T02:39:39;95184.22;;;4.94;100.00
43450;BME280;29041;42.266;23.110;2023-11-18T02:42:28;95173.25;;;5.10;100.00
43450;BME280;29041;42.266;23.110;2023-11-18T02:45:17;95176.09;;;5.13;100.00
43450;BME280;29041;42.266;23.110;2023-11-18T02:48:05;95170.69;;;5.27;100.00
43450;BME280;29041;42.266;23.110;2023-11-18T02:50:52;95192.34;;;5.12;100.00
43450;BME280;29041;42.266;23.110;2023-11-18T02:53:40;95196.38;;;5.46;100.00
43450;BME280;29041;42.266;23.110;2023-11-18T02:56:30;95210.69;;;5.13;100.00
43450;BME280;29041;42.266;23.110;2023-11-18T02:59:17;95210.75;;;5.22;100.00
43450;BME280;29041;42.266;23.110;2023-11-18T03:02:06;95210.03;;;4.93;100.00
43450;BME280;29041;42.266;23.110;2023-11-18T03:04:53;95222.03;;;5.05;100.00
43450;BME280;29041;42.266;23.110;2023-11-18T03:07:41;95224.28;;;5.48;100.00
43450;BME280;29041;42.266;23.110;2023-11-18T03:10:30;95203.16;;;4.79;100.00
43450;BME280;29041;42.266;23.110;2023-11-18T03:13:19;95221.66;;;4.84;100.00
43450;BME280;29041;42.266;23.110;2023-11-18T03:16:07;95217.69;;;5.09;100.00
43450;BME280;29041;42.266;23.110;2023-11-18T03:18:58;95192.09;;;4.85;100.00
43450;BME280;29041;42.266;23.110;2023-11-18T03:21:50;95213.19;;;4.96;100.00
43450;BME280;29041;42.266;23.110;2023-11-18T03:24:38;95207.34;;;4.57;100.00
43450;BME280;29041;42.266;23.110;2023-11-18T03:27:26;95211.16;;;4.65;100.00
43450;BME280;29041;42.266;23.110;2023-11-18T03:30:13;95216.56;;;4.59;100.00
43450;BME280;29041;42.266;23.110;2023-11-18T03:33:00;95216.88;;;4.44;100.00
43450;BME280;29041;42.266;23.110;2023-11-18T03:35:49;95220.44;;;4.53;100.00
43450;BME280;29041;42.266;23.110;2023-11-18T03:38:36;95235.69;;;4.48;100.00
43450;BME280;29041;42.266;23.110;2023-11-18T03:41:23;95237.16;;;4.54;100.00
43450;BME280;29041;42.266;23.110;2023-11-18T03:44:11;95235.78;;;4.42;100.00
43450;BME280;29041;42.266;23.110;2023-11-18T03:46:58;95243.34;;;4.49;100.00
43450;BME280;29041;42.266;23.110;2023-11-18T03:49:48;95240.50;;;4.32;100.00
43450;BME280;29041;42.266;23.110;2023-11-18T03:52:37;95237.84;;;4.32;100.00
43450;BME280;29041;42.266;23.110;2023-11-18T03:55:24;95243.06;;;4.65;100.00
43450;BME280;29041;42.266;23.110;2023-11-18T03:58:12;95254.66;;;4.41;100.00
43450;BME280;29041;42.266;23.110;2023-11-18T04:00:59;95256.81;;;4.25;100.00
43450;BME280;29041;42.266;23.110;2023-11-18T04:03:47;95247.16;;;4.29;100.00
43450;BME280;29041;42.266;23.110;2023-11-18T04:06:34;95259.22;;;4.40;100.00
43450;BME280;29041;42.266;23.110;2023-11-18T04:09:22;95262.25;;;4.89;100.00
43450;BME280;29041;42.266;23.110;2023-11-18T04:12:11;95265.81;;;4.71;100.00
43450;BME280;29041;42.266;23.110;2023-11-18T04:14:58;95270.50;;;4.88;100.00
43450;BME280;29041;42.266;23.110;2023-11-18T04:17:45;95268.38;;;4.62;100.00
43450;BME280;29041;42.266;23.110;2023-11-18T04:20:32;95268.38;;;4.62;100.00
43450;BME280;29041;42.266;23.110;2023-11-18T04:23:19;95285.28;;;4.66;100.00
43450;BME280;29041;42.266;23.110;2023-11-18T04:26:10;95287.69;;;4.68;100.00
43450;BME280;29041;42.266;23.110;2023-11-18T04:28:57;95282.03;;;4.27;100.00
43450;BME280;29041;42.266;23.110;2023-11-18T04:31:45;95281.25;;;4.41;100.00
43450;BME280;29041;42.266;23.110;2023-11-18T04:34:32;95289.91;;;4.33;100.00
43450;BME280;29041;42.266;23.110;2023-11-18T04:37:21;95283.16;;;4.07;100.00
43450;BME280;29041;42.266;23.110;2023-11-18T04:40:09;95296.78;;;3.68;100.00
43450;BME280;29041;42.266;23.110;2023-11-18T04:42:58;95292.22;;;3.54;100.00
43450;BME280;29041;42.266;23.110;2023-11-18T04:45:46;95291.88;;;3.42;100.00
43450;BME280;29041;42.266;23.110;2023-11-18T04:48:33;95284.03;;;3.31;100.00
43450;BME280;29041;42.266;23.110;2023-11-18T04:51:20;95289.66;;;3.49;100.00
43450;BME280;29041;42.266;23.110;2023-11-18T04:54:08;95296.66;;;3.40;100.00
43450;BME280;29041;42.266;23.110;2023-11-18T04:56:56;95290.91;;;3.13;100.00
43450;BME280;29041;42.266;23.110;2023-11-18T04:59:45;95300.78;;;3.08;100.00
43450;BME280;29041;42.266;23.110;2023-11-18T05:02:32;95306.53;;;3.15;100.00
43450;BME280;29041;42.266;23.110;2023-11-18T05:05:19;95302.91;;;3.30;100.00
43450;BME280;29041;42.266;23.110;2023-11-18T05:08:07;95296.09;;;3.24;100.00
43450;BME280;29041;42.266;23.110;2023-11-18T05:10:54;95299.47;;;3.48;100.00
43450;BME280;29041;42.266;23.110;2023-11-18T05:13:43;95293.81;;;3.36;100.00
43450;BME280;29041;42.266;23.110;2023-11-18T05:16:32;95292.66;;;3.42;100.00
43450;BME280;29041;42.266;23.110;2023-11-18T05:19:19;95287.00;;;3.30;100.00
43450;BME280;29041;42.266;23.110;2023-11-18T05:22:06;95297.00;;;3.14;100.00
43450;BME280;29041;42.266;23.110;2023-11-18T05:24:53;95289.56;;;3.16;100.00
43450;BME280;29041;42.266;23.110;2023-11-18T05:27:40;95284.81;;;2.94;100.00
43450;BME280;29041;42.266;23.110;2023-11-18T05:30:28;95299.41;;;2.91;100.00
43450;BME280;29041;42.266;23.110;2023-11-18T05:33:18;95294.06;;;2.96;100.00
43450;BME280;29041;42.266;23.110;2023-11-18T05:36:06;95297.19;;;2.98;100.00
43450;BME280;29041;42.266;23.110;2023-11-18T05:38:54;95304.00;;;2.85;100.00
43450;BME280;29041;42.266;23.110;2023-11-18T05:41:41;95299.34;;;2.96;100.00
43450;BME280;29041;42.266;23.110;2023-11-18T05:44:31;95306.50;;;2.96;100.00
43450;BME280;29041;42.266;23.110;2023-11-18T05:47:23;95296.31;;;2.84;100.00
43450;BME280;29041;42.266;23.110;2023-11-18T05:50:18;95308.69;;;2.94;100.00
43450;BME280;29041;42.266;23.110;2023-11-18T05:53:05;95291.22;;;2.88;100.00
43450;BME280;29041;42.266;23.110;2023-11-18T05:55:52;95310.03;;;3.10;100.00
43450;BME280;29041;42.266;23.110;2023-11-18T05:58:39;95307.50;;;2.81;100.00
43450;BME280;29041;42.266;23.110;2023-11-18T06:01:26;95311.09;;;2.90;100.00
43450;BME280;29041;42.266;23.110;2023-11-18T06:04:14;95314.97;;;2.98;100.00
43450;BME280;29041;42.266;23.110;2023-11-18T06:07:02;95308.19;;;3.11;100.00
43450;BME280;29041;42.266;23.110;2023-11-18T06:09:50;95311.41;;;3.08;100.00
43450;BME280;29041;42.266;23.110;2023-11-18T06:12:37;95306.72;;;3.24;100.00
43450;BME280;29041;42.266;23.110;2023-11-18T06:15:26;95309.28;;;3.48;100.00
43450;BME280;29041;42.266;23.110;2023-11-18T06:18:14;95317.44;;;3.90;100.00
43450;BME280;29041;42.266;23.110;2023-11-18T06:21:01;95316.22;;;3.25;100.00
43450;BME280;29041;42.266;23.110;2023-11-18T06:23:50;95313.75;;;2.66;100.00
43450;BME280;29041;42.266;23.110;2023-11-18T06:26:38;95315.22;;;3.21;100.00
43450;BME280;29041;42.266;23.110;2023-11-18T06:29:25;95318.63;;;3.64;100.00
43450;BME280;29041;42.266;23.110;2023-11-18T06:32:12;95311.75;;;3.96;100.00
43450;BME280;29041;42.266;23.110;2023-11-18T06:35:01;95324.28;;;4.10;100.00
43450;BME280;29041;42.266;23.110;2023-11-18T06:37:51;95318.19;;;4.09;100.00
43450;BME280;29041;42.266;23.110;2023-11-18T06:40:40;95332.59;;;3.70;100.00
43450;BME280;29041;42.266;23.110;2023-11-18T06:43:27;95336.66;;;4.01;100.00
43450;BME280;29041;42.266;23.110;2023-11-18T06:46:23;95349.78;;;4.11;100.00
43450;BME280;29041;42.266;23.110;2023-11-18T06:49:10;95343.94;;;4.28;100.00
43450;BME280;29041;42.266;23.110;2023-11-18T06:52:01;95331.94;;;3.97;100.00
43450;BME280;29041;42.266;23.110;2023-11-18T06:54:49;95345.94;;;4.17;100.00
43450;BME280;29041;42.266;23.110;2023-11-18T06:57:39;95352.59;;;4.01;100.00
43450;BME280;29041;42.266;23.110;2023-11-18T07:00:27;95358.00;;;3.76;100.00
43450;BME280;29041;42.266;23.110;2023-11-18T07:03:14;95358.72;;;3.63;100.00
43450;BME280;29041;42.266;23.110;2023-11-18T07:06:02;95367.09;;;3.51;100.00
43450;BME280;29041;42.266;23.110;2023-11-18T07:08:51;95365.78;;;3.29;100.00
43450;BME280;29041;42.266;23.110;2023-11-18T07:11:39;95374.16;;;2.93;100.00
43450;BME280;29041;42.266;23.110;2023-11-18T07:14:28;95375.13;;;3.03;100.00
43450;BME280;29041;42.266;23.110;2023-11-18T07:17:16;95367.09;;;3.08;100.00
43450;BME280;29041;42.266;23.110;2023-11-18T07:20:05;95377.56;;;2.99;100.00
43450;BME280;29041;42.266;23.110;2023-11-18T07:22:52;95375.59;;;2.85;100.00
43450;BME280;29041;42.266;23.110;2023-11-18T07:25:40;95388.25;;;2.64;100.00
43450;BME280;29041;42.266;23.110;2023-11-18T07:28:29;95377.78;;;3.03;100.00
43450;BME280;29041;42.266;23.110;2023-11-18T07:31:18;95372.44;;;3.27;100.00
43450;BME280;29041;42.266;23.110;2023-11-18T07:34:05;95367.72;;;2.99;100.00
43450;BME280;29041;42.266;23.110;2023-11-18T07:36:52;95371.47;;;3.42;100.00
43450;BME280;29041;42.266;23.110;2023-11-18T07:39:41;95377.16;;;3.54;100.00
43450;BME280;29041;42.266;23.110;2023-11-18T07:42:31;95370.84;;;3.69;100.00
43450;BME280;29041;42.266;23.110;2023-11-18T07:45:19;95369.16;;;3.35;100.00
43450;BME280;29041;42.266;23.110;2023-11-18T07:48:11;95377.31;;;3.82;100.00
43450;BME280;29041;42.266;23.110;2023-11-18T07:50:58;95380.13;;;3.72;100.00
43450;BME280;29041;42.266;23.110;2023-11-18T07:53:45;95379.94;;;3.44;100.00
43450;BME280;29041;42.266;23.110;2023-11-18T07:56:33;95375.59;;;3.91;100.00
43450;BME280;29041;42.266;23.110;2023-11-18T07:59:22;95386.28;;;3.67;100.00
43450;BME280;29041;42.266;23.110;2023-11-18T08:02:09;95383.88;;;3.65;100.00
43450;BME280;29041;42.266;23.110;2023-11-18T08:04:58;95389.06;;;3.57;100.00
43450;BME280;29041;42.266;23.110;2023-11-18T08:07:45;95399.25;;;3.49;100.00
43450;BME280;29041;42.266;23.110;2023-11-18T08:10:33;95399.38;;;3.58;100.00
43450;BME280;29041;42.266;23.110;2023-11-18T08:13:23;95389.41;;;3.50;100.00
43450;BME280;29041;42.266;23.110;2023-11-18T08:16:10;95401.19;;;3.82;100.00
43450;BME280;29041;42.266;23.110;2023-11-18T08:18:59;95395.41;;;3.61;100.00
43450;BME280;29041;42.266;23.110;2023-11-18T08:21:49;95403.34;;;3.42;100.00
43450;BME280;29041;42.266;23.110;2023-11-18T08:24:37;95407.13;;;3.55;100.00
43450;BME280;29041;42.266;23.110;2023-11-18T08:27:24;95417.91;;;3.63;100.00
43450;BME280;29041;42.266;23.110;2023-11-18T08:30:12;95422.88;;;3.70;100.00
43450;BME280;29041;42.266;23.110;2023-11-18T08:33:00;95429.22;;;3.93;100.00
43450;BME280;29041;42.266;23.110;2023-11-18T08:35:48;95430.50;;;3.33;100.00
43450;BME280;29041;42.266;23.110;2023-11-18T08:38:37;95434.59;;;3.21;100.00
43450;BME280;29041;42.266;23.110;2023-11-18T08:41:26;95454.81;;;3.41;100.00
43450;BME280;29041;42.266;23.110;2023-11-18T08:44:13;95446.56;;;2.94;100.00
43450;BME280;29041;42.266;23.110;2023-11-18T08:47:00;95436.78;;;2.89;100.00
43450;BME280;29041;42.266;23.110;2023-11-18T08:49:54;95455.84;;;2.62;100.00
43450;BME280;29041;42.266;23.110;2023-11-18T08:52:41;95435.59;;;2.42;100.00
43450;BME280;29041;42.266;23.110;2023-11-18T08:55:34;95434.97;;;2.55;100.00
43450;BME280;29041;42.266;23.110;2023-11-18T08:58:27;95447.09;;;2.61;100.00
43450;BME280;29041;42.266;23.110;2023-11-18T09:01:19;95443.38;;;2.62;100.00
43450;BME280;29041;42.266;23.110;2023-11-18T09:04:09;95460.38;;;2.21;100.00
43450;BME280;29041;42.266;23.110;2023-11-18T09:06:56;95446.94;;;2.13;100.00
43450;BME280;29041;42.266;23.110;2023-11-18T09:09:45;95465.44;;;2.23;100.00
43450;BME280;29041;42.266;23.110;2023-11-18T09:12:36;95444.16;;;1.94;100.00
43450;BME280;29041;42.266;23.110;2023-11-18T09:15:27;95454.75;;;1.94;100.00
43450;BME280;29041;42.266;23.110;2023-11-18T09:18:16;95444.50;;;1.77;100.00
43450;BME280;29041;42.266;23.110;2023-11-18T09:21:06;95437.69;;;1.65;100.00
43450;BME280;29041;42.266;23.110;2023-11-18T09:23:59;95436.34;;;2.13;100.00
43450;BME280;29041;42.266;23.110;2023-11-18T09:26:51;95436.25;;;2.63;100.00
43450;BME280;29041;42.266;23.110;2023-11-18T09:29:39;95436.25;;;2.58;100.00
43450;BME280;29041;42.266;23.110;2023-11-18T09:32:27;95439.81;;;2.77;100.00
43450;BME280;29041;42.266;23.110;2023-11-18T09:35:14;95439.25;;;2.51;100.00
43450;BME280;29041;42.266;23.110;2023-11-18T09:38:03;95428.53;;;2.61;100.00
43450;BME280;29041;42.266;23.110;2023-11-18T09:40:52;95437.59;;;2.60;100.00
43450;BME280;29041;42.266;23.110;2023-11-18T09:43:40;95426.78;;;2.51;100.00
43450;BME280;29041;42.266;23.110;2023-11-18T09:46:35;95435.41;;;2.33;100.00
43450;BME280;29041;42.266;23.110;2023-11-18T09:49:27;95429.78;;;2.45;100.00
43450;BME280;29041;42.266;23.110;2023-11-18T09:52:19;95419.69;;;2.76;100.00
43450;BME280;29041;42.266;23.110;2023-11-18T09:55:15;95436.72;;;2.65;100.00
43450;BME280;29041;42.266;23.110;2023-11-18T09:58:06;95423.22;;;3.20;100.00
43450;BME280;29041;42.266;23.110;2023-11-18T10:00:58;95439.78;;;3.07;100.00
43450;BME280;29041;42.266;23.110;2023-11-18T10:03:49;95426.41;;;2.93;100.00
43450;BME280;29041;42.266;23.110;2023-11-18T10:06:37;95421.09;;;3.41;100.00
43450;BME280;29041;42.266;23.110;2023-11-18T10:09:26;95414.28;;;3.11;100.00
43450;BME280;29041;42.266;23.110;2023-11-18T10:12:22;95441.63;;;3.55;100.00
43450;BME280;29041;42.266;23.110;2023-11-18T10:15:14;95448.81;;;3.54;100.00
43450;BME280;29041;42.266;23.110;2023-11-18T10:18:03;95438.84;;;3.22;100.00
43450;BME280;29041;42.266;23.110;2023-11-18T10:20:54;95447.91;;;3.64;100.00
43450;BME280;29041;42.266;23.110;2023-11-18T10:23:58;95438.50;;;3.28;100.00
43450;BME280;29041;42.266;23.110;2023-11-18T10:26:53;95449.38;;;2.73;100.00
43450;BME280;29041;42.266;23.110;2023-11-18T10:29:42;95431.38;;;2.99;100.00
43450;BME280;29041;42.266;23.110;2023-11-18T10:32:29;95442.56;;;3.45;100.00
43450;BME280;29041;42.266;23.110;2023-11-18T10:35:21;95448.50;;;3.61;100.00
43450;BME280;29041;42.266;23.110;2023-11-18T10:38:10;95445.75;;;3.23;100.00
43450;BME280;29041;42.266;23.110;2023-11-18T10:40:58;95442.72;;;3.05;100.00
43450;BME280;29041;42.266;23.110;2023-11-18T10:43:47;95432.53;;;3.42;100.00
43450;BME280;29041;42.266;23.110;2023-11-18T10:46:34;95421.91;;;3.42;100.00
43450;BME280;29041;42.266;23.110;2023-11-18T10:49:21;95411.06;;;3.38;100.00
43450;BME280;29041;42.266;23.110;2023-11-18T10:52:09;95415.25;;;3.44;100.00
43450;BME280;29041;42.266;23.110;2023-11-18T10:55:00;95407.22;;;3.25;100.00
43450;BME280;29041;42.266;23.110;2023-11-18T10:57:53;95413.09;;;3.22;100.00
43450;BME280;29041;42.266;23.110;2023-11-18T11:00:49;95414.72;;;3.42;100.00
43450;BME280;29041;42.266;23.110;2023-11-18T11:03:52;95409.19;;;3.39;100.00
43450;BME280;29041;42.266;23.110;2023-11-18T11:06:43;95397.88;;;3.52;100.00
43450;BME280;29041;42.266;23.110;2023-11-18T11:09:38;95407.38;;;3.34;100.00
43450;BME280;29041;42.266;23.110;2023-11-18T11:12:31;95411.97;;;3.53;100.00
43450;BME280;29041;42.266;23.110;2023-11-18T11:15:22;95404.44;;;3.36;100.00
43450;BME280;29041;42.266;23.110;2023-11-18T11:18:12;95414.78;;;3.37;100.00
43450;BME280;29041;42.266;23.110;2023-11-18T11:21:13;95419.06;;;3.57;100.00
43450;BME280;29041;42.266;23.110;2023-11-18T11:24:04;95422.09;;;3.26;100.00
43450;BME280;29041;42.266;23.110;2023-11-18T11:27:07;95412.59;;;3.44;100.00
43450;BME280;29041;42.266;23.110;2023-11-18T11:30:10;95406.94;;;3.27;100.00
43450;BME280;29041;42.266;23.110;2023-11-18T11:33:06;95393.56;;;3.13;100.00
43450;BME280;29041;42.266;23.110;2023-11-18T11:35:59;95424.41;;;3.52;100.00
43450;BME280;29041;42.266;23.110;2023-11-18T11:38:48;95398.88;;;3.37;100.00
43450;BME280;29041;42.266;23.110;2023-11-18T11:41:37;95398.88;;;3.37;100.00
43450;BME280;29041;42.266;23.110;2023-11-18T11:44:25;95409.09;;;3.68;100.00
43450;BME280;29041;42.266;23.110;2023-11-18T11:47:17;95408.88;;;3.64;100.00
43450;BME280;29041;42.266;23.110;2023-11-18T11:50:09;95404.88;;;3.67;100.00
43450;BME280;29041;42.266;23.110;2023-11-18T11:53:03;95407.75;;;3.90;100.00
43450;BME280;29041;42.266;23.110;2023-11-18T11:55:53;95399.91;;;3.79;100.00
43450;BME280;29041;42.266;23.110;2023-11-18T11:58:50;95409.19;;;3.39;100.00
43450;BME280;29041;42.266;23.110;2023-11-18T12:01:40;95414.47;;;3.20;100.00
43450;BME280;29041;42.266;23.110;2023-11-18T12:04:33;95405.59;;;3.05;100.00
43450;BME280;29041;42.266;23.110;2023-11-18T12:07:25;95424.50;;;3.23;100.00
43450;BME280;29041;42.266;23.110;2023-11-18T12:10:13;95417.25;;;3.28;100.00
43450;BME280;29041;42.266;23.110;2023-11-18T12:13:09;95424.03;;;3.40;100.00
43450;BME280;29041;42.266;23.110;2023-11-18T12:16:02;95414.22;;;3.40;100.00
43450;BME280;29041;42.266;23.110;2023-11-18T12:19:31;95427.19;;;3.66;100.00
43450;BME280;29041;42.266;23.110;2023-11-18T12:22:24;95429.19;;;3.74;100.00
43450;BME280;29041;42.266;23.110;2023-11-18T12:25:30;95428.28;;;3.41;100.00
43450;BME280;29041;42.266;23.110;2023-11-18T12:28:25;95424.81;;;3.64;100.00
43450;BME280;29041;42.266;23.110;2023-11-18T12:31:38;95423.03;;;3.79;100.00
43450;BME280;29041;42.266;23.110;2023-11-18T12:34:49;95433.28;;;4.05;100.00
43450;BME280;29041;42.266;23.110;2023-11-18T12:38:17;95426.97;;;3.81;100.00
43450;BME280;29041;42.266;23.110;2023-11-18T12:41:32;95428.31;;;3.60;100.00
43450;BME280;29041;42.266;23.110;2023-11-18T12:44:29;95417.91;;;3.20;100.00
43450;BME280;29041;42.266;23.110;2023-11-18T12:47:19;95433.53;;;3.46;100.00
43450;BME280;29041;42.266;23.110;2023-11-18T12:50:09;95428.31;;;3.36;100.00
43450;BME280;29041;42.266;23.110;2023-11-18T12:53:04;95440.31;;;3.57;100.00
43450;BME280;29041;42.266;23.110;2023-11-18T12:55:52;95423.66;;;3.27;100.00
43450;BME280;29041;42.266;23.110;2023-11-18T12:58:39;95430.88;;;3.46;100.00
43450;BME280;29041;42.266;23.110;2023-11-18T13:01:28;95440.47;;;3.42;100.00
43450;BME280;29041;42.266;23.110;2023-11-18T13:04:19;95448.31;;;3.52;100.00
43450;BME280;29041;42.266;23.110;2023-11-18T13:07:06;95433.41;;;3.56;100.00
43450;BME280;29041;42.266;23.110;2023-11-18T13:09:58;95449.34;;;3.56;100.00
43450;BME280;29041;42.266;23.110;2023-11-18T13:12:46;95418.75;;;3.40;100.00
43450;BME280;29041;42.266;23.110;2023-11-18T13:15:33;95439.38;;;3.43;100.00
43450;BME280;29041;42.266;23.110;2023-11-18T13:18:20;95413.91;;;3.23;100.00
43450;BME280;29041;42.266;23.110;2023-11-18T13:21:07;95443.84;;;3.47;100.00
43450;BME280;29041;42.266;23.110;2023-11-18T13:23:56;95444.50;;;3.58;100.00
43450;BME280;29041;42.266;23.110;2023-11-18T13:26:45;95466.25;;;3.60;100.00
43450;BME280;29041;42.266;23.110;2023-11-18T13:29:35;95438.28;;;3.49;100.00
43450;BME280;29041;42.266;23.110;2023-11-18T13:32:25;95460.88;;;3.65;100.00
43450;BME280;29041;42.266;23.110;2023-11-18T13:35:13;95473.94;;;3.62;100.00
43450;BME280;29041;42.266;23.110;2023-11-18T13:38:04;95473.78;;;3.53;100.00
43450;BME280;29041;42.266;23.110;2023-11-18T13:40:51;95470.66;;;3.70;100.00
43450;BME280;29041;42.266;23.110;2023-11-18T13:43:44;95485.19;;;3.78;100.00
43450;BME280;29041;42.266;23.110;2023-11-18T13:46:32;95489.84;;;3.86;100.00
43450;BME280;29041;42.266;23.110;2023-11-18T13:49:20;95499.63;;;3.67;100.00
43450;BME280;29041;42.266;23.110;2023-11-18T13:52:08;95505.69;;;3.48;100.00
43450;BME280;29041;42.266;23.110;2023-11-18T13:54:57;95512.97;;;3.61;100.00
43450;BME280;29041;42.266;23.110;2023-11-18T13:57:45;95516.78;;;3.55;100.00
43450;BME280;29041;42.266;23.110;2023-11-18T14:00:34;95523.75;;;3.46;100.00
43450;BME280;29041;42.266;23.110;2023-11-18T14:03:21;95528.34;;;3.64;100.00
43450;BME280;29041;42.266;23.110;2023-11-18T14:06:09;95530.50;;;3.62;100.00
43450;BME280;29041;42.266;23.110;2023-11-18T14:08:58;95552.63;;;3.77;100.00
43450;BME280;29041;42.266;23.110;2023-11-18T14:11:45;95542.56;;;3.74;100.00
43450;BME280;29041;42.266;23.110;2023-11-18T14:14:32;95536.81;;;3.42;100.00
43450;BME280;29041;42.266;23.110;2023-11-18T14:17:21;95532.28;;;3.43;100.00
43450;BME280;29041;42.266;23.110;2023-11-18T14:20:09;95546.66;;;3.66;100.00
43450;BME280;29041;42.266;23.110;2023-11-18T14:22:59;95548.66;;;3.50;100.00
43450;BME280;29041;42.266;23.110;2023-11-18T14:25:47;95533.47;;;3.31;100.00
43450;BME280;29041;42.266;23.110;2023-11-18T14:28:34;95555.06;;;3.49;100.00
43450;BME280;29041;42.266;23.110;2023-11-18T14:31:21;95560.25;;;3.59;100.00
43450;BME280;29041;42.266;23.110;2023-11-18T14:34:10;95558.66;;;3.58;100.00
43450;BME280;29041;42.266;23.110;2023-11-18T14:36:57;95559.53;;;3.54;100.00
43450;BME280;29041;42.266;23.110;2023-11-18T14:39:44;95567.56;;;3.43;100.00
43450;BME280;29041;42.266;23.110;2023-11-18T14:42:32;95572.19;;;3.32;100.00
43450;BME280;29041;42.266;23.110;2023-11-18T14:45:19;95569.41;;;3.48;100.00
43450;BME280;29041;42.266;23.110;2023-11-18T14:48:07;95576.44;;;3.33;100.00